ADDS METAR Data INFO
IDs: Format: Raw Decoded Include TAF

Data at: 1336 UTC 19 Jul 2018

K40J 191315Z AUTO 00000KT 7SM -VCTSRA SCT008 BKN055 OVC070 26/25 A2996 RMK AO2 LTG DSNT SE AND SW P0001 T02620250
K40J 191255Z AUTO 24003KT 4SM RA SCT005 SCT020 OVC070 26/25 A2996 RMK AO2 LTG DSNT SW P0004 T02620249
K40J 191235Z AUTO 20005KT 5SM RA SCT005 BKN055 OVC085 26/25 A2995 RMK AO2 LTG DSNT S AND SW P0001 T02640252
K40J 191215Z AUTO 00000KT 10SM VCTS OVC019 26/25 A2995 RMK AO2 LTG DSNT SE THRU SW T02570246
K40J 191155Z AUTO 21004KT 10SM TS SCT006 SCT011 BKN019 26/25 A2995 RMK AO2 LTG DSNT SE THRU W 70023 T02550246 10255 20242
K40J 191135Z AUTO 00000KT 10SM VCTS SCT120 25/24 A2995 RMK AO2 LTG DSNT S THRU W T02520244
K40J 191115Z AUTO 00000KT 10SM BKN070 25/24 A2994 RMK AO2 LTG DSNT S THRU W T02490240
K40J 191055Z AUTO 00000KT 10SM BKN070 25/24 A2993 RMK AO2 LTG DSNT S AND SW T02470239
K40J 191035Z AUTO 00000KT 7SM SCT070 25/24 A2993 RMK AO2 LTG DSNT SW AND W T02470238
K40J 191015Z AUTO 00000KT 10SM SCT070 25/24 A2993 RMK AO2 LTG DSNT SW T02470238
K40J 190955Z AUTO 00000KT 10SM SCT048 25/24 A2992 RMK AO2 LTG DSNT SE AND SW T02460237
K40J 190935Z AUTO 13003KT 10SM CLR 25/24 A2992 RMK AO2 LTG DSNT S AND SW T02460238
K40J 190915Z AUTO 13003KT 10SM CLR 25/24 A2991 RMK AO2 LTG DSNT S AND SW T02450237
K40J 190855Z AUTO 15003KT 7SM CLR 24/24 A2992 RMK AO2 LTG DSNT SW T02430235
K40J 190835Z AUTO 00000KT 7SM CLR 25/24 A2991 RMK AO2 LTG DSNT SW T02450237
K40J 190815Z AUTO 00000KT 7SM SCT026 SCT065 25/24 A2991 RMK AO2 T02450237
K40J 190755Z AUTO 00000KT 7SM SCT026 SCT065 25/24 A2992 RMK AO2 LTG DSNT SW T02450237
K40J 190735Z AUTO 00000KT 5SM BR CLR 24/24 A2991 RMK AO2 LTG DSNT SW T02430235
K40J 190715Z AUTO 00000KT 10SM CLR 25/24 A2992 RMK AO2 LTG DSNT SW T02450236
K40J 190655Z AUTO 00000KT 7SM VCTS CLR 25/24 A2992 RMK AO2 LTG DSNT SW T02460237
K40J 190635Z AUTO 00000KT 7SM CLR 25/24 A2993 RMK AO2 LTG DSNT SW T02460236
K40J 190615Z AUTO 00000KT 10SM CLR 25/24 A2992 RMK AO2 LTG DSNT SW T02470237
K40J 190555Z AUTO 00000KT 10SM CLR 25/24 A2994 RMK AO2 LTG DSNT SW T02470237 10270 20246
K40J 190535Z AUTO 00000KT 10SM SCT043 25/24 A2994 RMK AO2 LTG DSNT SW T02480236
K40J 190515Z AUTO 00000KT 10SM CLR 25/24 A2995 RMK AO2 T02500237
K40J 190455Z AUTO 00000KT 10SM CLR 25/24 A2995 RMK AO2 T02520239
K40J 190435Z AUTO 00000KT 10SM CLR 25/24 A2995 RMK AO2 T02510238
K40J 190415Z AUTO 00000KT 10SM CLR 25/24 A2995 RMK AO2 T02500236
K40J 190355Z AUTO 32003KT 10SM CLR 26/24 A2996 RMK AO2 T02550237 403220237
K40J 190335Z AUTO 00000KT 10SM CLR 26/24 A2996 RMK AO2 T02580240
K40J 190315Z AUTO 00000KT 10SM CLR 26/24 A2996 RMK AO2 T02600242
K40J 190255Z AUTO 00000KT 10SM CLR 26/24 A2996 RMK AO2 T02630241
K40J 190235Z AUTO 00000KT 10SM CLR 26/24 A2995 RMK AO2 T02630241
K40J 190215Z AUTO 00000KT 10SM SCT025 SCT032 SCT038 26/24 A2995 RMK AO2 T02630243
K40J 190155Z AUTO 00000KT 10SM SCT023 SCT032 SCT038 27/24 A2995 RMK AO2 T02650242
K40J 190135Z AUTO 00000KT 10SM CLR 27/24 A2995 RMK AO2 T02650242
K40J 190115Z AUTO 22004KT 10SM CLR 26/24 A2993 RMK AO2 T02640244
K40J 190055Z AUTO 24003KT 10SM CLR 27/25 A2993 RMK AO2 T02650247
K40J 190035Z AUTO 22003KT 10SM CLR 27/25 A2992 RMK AO2 T02670247
K40J 190015Z AUTO 22003KT 10SM SCT085 27/25 A2992 RMK AO2 T02690245
K40J 182355Z AUTO 22004KT 10SM SCT024 BKN070 OVC080 27/24 A2992 RMK AO2 T02700243 10322 20267
K40J 182335Z AUTO 22005KT 10SM SCT023 SCT042 OVC070 27/24 A2993 RMK AO2 T02700240
K40J 182315Z AUTO 23011G19KT 7SM -RA SCT023 BKN042 BKN055 27/24 A2993 RMK AO2 T02710237
K40J 182255Z AUTO 22007KT 10SM SCT025 SCT034 SCT040 29/24 A2993 RMK AO2 T02920242
K40J 182235Z AUTO 22011G15KT 10SM SCT027 SCT036 30/24 A2994 RMK AO2 T02960241
K40J 182215Z AUTO 22007KT 10SM SCT027 30/23 A2994 RMK AO2 LTG DSNT E T03010234
K40J 182155Z AUTO 23009KT 200V260 10SM SCT027 31/24 A2994 RMK AO2 T03110240
K40J 182135Z AUTO 21012KT 10SM SCT023 BKN027 BKN037 31/24 A2994 RMK AO2 T03070242
K40J 182115Z AUTO 21007KT 10SM -RA SCT021 BKN026 BKN040 30/25 A2995 RMK AO2 LTG DSNT NE AND E T03010247
K40J 182055Z AUTO 24011KT 10SM SCT027 SCT033 SCT048 31/24 A2994 RMK AO2 LTG DSNT E T03130244
K40J 182035Z AUTO 22011KT 10SM SCT027 SCT032 BKN043 31/24 A2995 RMK AO2 T03120242
K40J 182015Z AUTO 22012G17KT 10SM BKN027 BKN042 BKN050 31/24 A2995 RMK AO2 T03130241
K40J 181955Z AUTO 25012KT 10SM SCT031 SCT039 BKN045 31/24 A2996 RMK AO2 T03120238
K40J 181935Z AUTO 26012KT 10SM BKN033 BKN041 BKN050 32/24 A2996 RMK AO2 T03160238
K40J 181915Z AUTO 24010KT 10SM BKN033 32/23 A2997 RMK AO2 T03150232
K40J 181855Z AUTO 22010G17KT 10SM BKN031 32/24 A2997 RMK AO2 T03180238
K40J 181835Z AUTO 25011G14KT 10SM SCT031 32/24 A2997 RMK AO2 T03220238
K40J 181815Z AUTO 26010KT 10SM SCT031 32/24 A2997 RMK AO2 T03160240
K40J 181755Z AUTO 22010G15KT 10SM SCT031 SCT050 SCT080 32/24 A2999 RMK AO2 60023 T03190244 10319 20257
K40J 181735Z AUTO 23010KT 10SM SCT029 SCT035 SCT050 32/24 A2999 RMK AO2 T03150242
K40J 181715Z AUTO 23007KT 210V270 10SM SCT029 32/25 A3000 RMK AO2 LTG DSNT S T03160247
K40J 181655Z AUTO 23010KT 10SM SCT020 SCT026 31/24 A3000 RMK AO2 LTG DSNT E T03090244
K40J 181635Z AUTO 20005KT 10SM SCT018 SCT026 30/26 A3000 RMK AO2 T03010259
K40J 181615Z AUTO 21005KT 10SM SCT018 SCT023 29/26 A3001 RMK AO2 LTG DSNT N T02940259
K40J 181555Z AUTO 21003KT 10SM CLR 28/26 A3002 RMK AO2 LTG DSNT E T02840259
K40J 181535Z AUTO 00000KT 10SM CLR 27/25 A3001 RMK AO2 LTG DSNT E T02730251
K40J 181515Z AUTO 00000KT 10SM SCT014 SCT031 SCT039 27/25 A3002 RMK AO2 LTG DSNT SE T02670248
K40J 181455Z AUTO 24004G15KT 1 1/4SM +RA SCT014 BKN026 OVC045 26/24 A3003 RMK AO2 LTG DSNT W P0023 60023 T02640242
K40J 181435Z AUTO 00000KT 10SM VCTS SCT033 SCT043 SCT080 28/24 A3002 RMK AO2 LTG DSNT SW T02750241
K40J 181415Z AUTO 00000KT 10SM CLR 27/24 A3002 RMK AO2 T02740238
K40J 181355Z AUTO 33003KT 10SM SCT019 SCT024 27/24 A3002 RMK AO2 T02740239
K40J 181335Z AUTO 31006KT 10SM SCT017 BKN024 OVC060 27/24 A3002 RMK AO2 T02740240
K40J 181315Z AUTO 31003KT 10SM BKN026 BKN038 BKN050 29/25 A3002 RMK AO2 T02850249
K40J 181255Z AUTO 00000KT 10SM BKN026 BKN033 28/25 A3002 RMK AO2 T02750249
K40J 181235Z AUTO 00000KT 10SM BKN024 27/25 A3002 RMK AO2 T02670246
K40J 181215Z AUTO 00000KT 10SM BKN024 BKN034 26/24 A3001 RMK AO2 LTG DSNT W T02620244
K40J 181155Z AUTO 00000KT 10SM SCT024 SCT029 SCT034 26/24 A3001 RMK AO2 T02560240 10256 20237
K40J 181135Z AUTO 00000KT 10SM BKN022 BKN034 25/24 A3001 RMK AO2 T02510241
K40J 181115Z AUTO 00000KT 10SM SCT050 SCT055 SCT100 25/24 A3000 RMK AO2 T02450235
K40J 181055Z AUTO 00000KT 10SM SCT021 SCT034 BKN100 24/24 A3000 RMK AO2 T02430236
K40J 181035Z AUTO 00000KT 4SM BR SCT036 24/23 A2999 RMK AO2 T02410234
K40J 181015Z AUTO 00000KT 7SM CLR 24/23 A2998 RMK AO2 T02400232
K40J 180955Z AUTO 00000KT 7SM CLR 24/23 A2999 RMK AO2 T02420234
K40J 180935Z AUTO 00000KT 7SM CLR 25/24 A2999 RMK AO2 T02450236
K40J 180915Z AUTO 00000KT 7SM CLR 24/23 A2998 RMK AO2 T02370228
K40J 180855Z AUTO 00000KT 7SM CLR 24/24 A2999 RMK AO2 T02440235
K40J 180835Z AUTO 00000KT 10SM CLR 24/23 A2999 RMK AO2 T02400230
K40J 180815Z AUTO 00000KT 7SM CLR 24/23 A2999 RMK AO2 T02380228
K40J 180755Z AUTO 00000KT 7SM CLR 24/23 A3000 RMK AO2 T02430232
K40J 180735Z AUTO 00000KT 10SM CLR 25/24 A3000 RMK AO2 T02460235
K40J 180715Z AUTO 00000KT 10SM CLR 25/23 A3000 RMK AO2 T02460234
K40J 180655Z AUTO 00000KT 10SM CLR 25/23 A3001 RMK AO2 T02490234
K40J 180635Z AUTO 00000KT 10SM CLR 25/24 A3001 RMK AO2 T02500235
K40J 180615Z AUTO 00000KT 10SM CLR 25/24 A3001 RMK AO2 T02520235
K40J 180555Z AUTO 00000KT 10SM CLR 25/23 A3001 RMK AO2 T02540234 10281 20254
K40J 180535Z AUTO 00000KT 10SM CLR 26/24 A3001 RMK AO2 T02600235
K40J 180515Z AUTO 00000KT 10SM CLR 26/24 A3002 RMK AO2 T02570235
K40J 180455Z AUTO 00000KT 10SM CLR 26/24 A3002 RMK AO2 T02600235
K40J 180435Z AUTO 00000KT 10SM CLR 26/24 A3002 RMK AO2 T02610236
K40J 180415Z AUTO 24003KT 10SM CLR 26/23 A3002 RMK AO2 T02610233
K40J 180355Z AUTO 27003KT 10SM CLR 27/23 A3003 RMK AO2 T02660234 403190248
K40J 180335Z AUTO 26004KT 10SM CLR 27/23 A3003 RMK AO2 T02700233
K40J 180315Z AUTO 24005KT 10SM CLR 27/23 A3003 RMK AO2 T02730232
K40J 180255Z AUTO 26005KT 10SM CLR 28/23 A3003 RMK AO2 T02750233
K40J 180235Z AUTO 25005KT 10SM CLR 28/23 A3002 RMK AO2 T02760233
K40J 180215Z AUTO 25005KT 10SM CLR 28/24 A3002 RMK AO2 T02760237
K40J 180155Z AUTO 22004KT 10SM SCT033 SCT040 28/24 A3002 RMK AO2 LTG DSNT NE T02760241